Hauptseite
METAR-TAF:

METAR-TAF

Flughäfen :

Danbury Municipal Airport

Danbury, Connecticut, Vereinigte Staaten

Breite: 41-22-18N, Länge: 073-29-04W, Höhe: 139 m

Beobachtung

Neuester Wetterbericht von vor 47 Minuten, um 07:53 UTC
Windstille
Temperatur 6°C
Luftfeuchtigkeit 87%
Luftdruck 1002 hPa
Sichtweite: 12.9 km
Geschlossene Wolkendecke in der Höhe von 800 ft

METAR: KDXR 090753Z AUTO 00000KT 8SM OVC008 06/04 A2960 RMK AO2 SLP022 T00560044

Zeit: 04:40 (08:40 UTC)


TAF: fehlend

Wetterbeobachtungen und Prognosen von mehr als 4000 Flughäfen (METAR und TAF Bericht).

Die verfügbaren Stationen werden durch gelbe und rote Markierungen auf der Karte dargestellt.

Führen Sie die Maus auf sie, um den Namen der Station zu sehen.

Darauf klicken, um die Beobachtung von Wetterbeobachtungen und Prognosen zu sehen.

Um die Karte zu ändern : klicken Sie auf den grünen Tasten mit einem schwarzen Kreuz Zum Vergrößern, auf den grünen Button mit einem Gedankenstrich zu verkleinern, oder auf die grünen Pfeile für benachbarte Karten.


METAR-TAF: